Mathilde Maersk — OUJS2 — position and weather

sailwx.info

Track history (hours):
 
Tides and Currents Weather Stations Pressure Air Temp Water Temp Dewpoint Dewpoint Depression Visibility Wind Speed Wind Dir Waves Ship Positions

Mathilde Maersk

Last reported at 2015-Jan-29 03:32 UTC. Time now 2015-Jan-29 04:19 UTC.
Position N 01°17' E 103°45'.

Length 367 m; draft 12.2 m.

Type: Ship (hazmat cat B). MMSI: 220597990.

Date/timePositionNaut miles runAvg speedWind from/ knotsBaromVisibWave heightAir tempDewpointWater temp
2015-Jan-29 03:32N 01°17' E 103°45'0 0.0
2015-Jan-29 02:20N 01°17' E 103°45'0 0.0
2015-Jan-28 21:23N 01°17' E 103°45'0 0.0
2015-Jan-28 16:32N 01°17' E 103°45'0 0.1
2015-Jan-28 15:33N 01°16' E 103°45'0 0.2
2015-Jan-28 14:32N 01°16' E 103°45'7 7.0
2015-Jan-28 13:31N 01°12' E 103°51'7 7.1
2015-Jan-28 12:33N 01°15' E 103°58'10 9.8
2015-Jan-28 11:33N 01°17' E 104°08'  
2015-Jan-25 00:19N 22°21' E 114°03'911.8
2015-Jan-24 23:33N 22°24' E 113°53'4 2.4
2015-Jan-24 22:04N 22°28' E 113°53'0 0.0
2015-Jan-24 21:28N 22°28' E 113°53'0 0.0
2015-Jan-24 20:10N 22°28' E 113°53'0 0.0
2015-Jan-24 19:22N 22°28' E 113°53'0 0.0
2015-Jan-24 18:28N 22°28' E 113°53'0 0.0
2015-Jan-24 17:22N 22°28' E 113°53'0 0.0
2015-Jan-24 16:04N 22°28' E 113°53'0 0.0
2015-Jan-24 15:22N 22°28' E 113°53'0 0.0
2015-Jan-24 14:16N 22°28' E 113°53'0 0.0
2015-Jan-24 13:22N 22°28' E 113°53'0 0.1
2015-Jan-24 12:33N 22°28' E 113°53'5 5.2
2015-Jan-24 11:33N 22°23' E 113°54'10 9.8
2015-Jan-24 10:29N 22°20' E 114°05'12 9.6
2015-Jan-24 09:13N 22°10' E 114°13'4 5.9
2015-Jan-24 08:29N 22°06' E 114°13'15 7.6
2015-Jan-24 06:33N 22°19' E 114°06'2 2.0
2015-Jan-24 05:33N 22°20' E 114°07'0 0.0
2015-Jan-24 04:27N 22°20' E 114°07'0 0.0
2015-Jan-24 03:27N 22°20' E 114°07'0 0.0
2015-Jan-24 02:33N 22°20' E 114°07'0 0.0
2015-Jan-24 01:33N 22°20' E 114°07'0 0.0
2015-Jan-24 00:30N 22°20' E 114°07'0 0.0
2015-Jan-23 23:30N 22°20' E 114°07'0 0.0
2015-Jan-23 22:30N 22°20' E 114°07'0 0.0
2015-Jan-23 21:06N 22°20' E 114°07'0 0.0
2015-Jan-23 20:30N 22°20' E 114°07'0 0.0
2015-Jan-23 19:21N 22°20' E 114°07'0 0.0
2015-Jan-23 18:30N 22°20' E 114°07'0 0.0
2015-Jan-23 17:30N 22°20' E 114°07'0 0.0
2015-Jan-23 16:30N 22°20' E 114°07'0 0.0
2015-Jan-23 15:30N 22°20' E 114°07'0 0.0
2015-Jan-23 14:33N 22°20' E 114°07'0 0.0
2015-Jan-23 13:33N 22°20' E 114°07'0 0.0
2015-Jan-23 12:30N 22°20' E 114°07'2 1.8
2015-Jan-23 11:33N 22°19' E 114°06'7 6.3
2015-Jan-23 10:23N 22°13' E 114°10'6 3.2
2015-Jan-23 08:27N 22°08' E 114°15'5 5.5
2015-Jan-23 07:33N 22°09' E 114°20'6 5.7
2015-Jan-23 06:33N 22°08' E 114°26'7 5.7
2015-Jan-23 05:22N 22°09' E 114°34'12712.7
2015-Jan-22 19:21N 22°41' E 116°46'1414.6
2015-Jan-22 18:26N 22°50' E 116°57'1514.2
2015-Jan-22 17:22N 22°60' E 117°10'6712.8
2015-Jan-22 12:10N 23°41' E 118°07'912.9
2015-Jan-22 11:29N 23°46' E 118°15'1212.9
2015-Jan-22 10:32N 23°53' E 118°26'5813.6
2015-Jan-22 06:19N 24°27' E 119°17'2913.3
2015-Jan-22 04:06N 24°46' E 119°42'33212.3
2015-Jan-21 01:13N 29°29' E 122°56'2311.4
2015-Jan-20 23:10N 29°52' E 123°01'3111.9
2015-Jan-20 20:32N 30°21' E 122°48'1613.5
2015-Jan-20 19:20N 30°28' E 122°31'1113.5
2015-Jan-20 18:32N 30°32' E 122°20'1313.4
2015-Jan-20 17:33N 30°36' E 122°05'2 1.8
2015-Jan-20 16:20N 30°37' E 122°03'0 0.0
2015-Jan-20 15:29N 30°38' E 122°03'0 0.0
2015-Jan-20 14:32N 30°38' E 122°03'0 0.0
2015-Jan-20 13:32N 30°38' E 122°03'0 0.0
2015-Jan-20 12:32N 30°38' E 122°03'0 0.0
2015-Jan-20 11:32N 30°38' E 122°03'0 0.0
2015-Jan-20 10:32N 30°38' E 122°03'0 0.0
2015-Jan-20 09:32N 30°38' E 122°03'0 0.0
2015-Jan-20 08:32N 30°38' E 122°03'0 0.0
2015-Jan-20 07:32N 30°38' E 122°03'0 0.0
2015-Jan-20 06:32N 30°38' E 122°03'2 2.1
2015-Jan-20 05:33N 30°36' E 122°05'1010.1
2015-Jan-20 04:33N 30°33' E 122°17'10 9.7
2015-Jan-20 03:33N 30°32' E 122°28'2321.3
2015-Jan-20 02:30N 30°35' E 122°54'  
Track history (hours):
 
Tides and Currents Weather Stations Pressure Air Temp Water Temp Dewpoint Dewpoint Depression Visibility Wind Speed Wind Dir Waves Ship Positions

Mathilde Maersk

Last reported at 2015-Jan-29 03:32 UTC. Time now 2015-Jan-29 04:19 UTC.
Position N 01°17' E 103°45'.

Length 367 m; draft 12.2 m.

Type: Ship (hazmat cat B). MMSI: 220597990.

Date/timePositionNaut miles runAvg speedWind from/ knotsBaromVisibWave heightAir tempDewpointWater temp
2015-Jan-29 03:32N 01°17' E 103°45'0 0.0
2015-Jan-29 02:20N 01°17' E 103°45'0 0.0
2015-Jan-28 21:23N 01°17' E 103°45'0 0.0
2015-Jan-28 16:32N 01°17' E 103°45'0 0.1
2015-Jan-28 15:33N 01°16' E 103°45'0 0.2
2015-Jan-28 14:32N 01°16' E 103°45'7 7.0
2015-Jan-28 13:31N 01°12' E 103°51'7 7.1
2015-Jan-28 12:33N 01°15' E 103°58'10 9.8
2015-Jan-28 11:33N 01°17' E 104°08'  
2015-Jan-25 00:19N 22°21' E 114°03'911.8
2015-Jan-24 23:33N 22°24' E 113°53'4 2.4
2015-Jan-24 22:04N 22°28' E 113°53'0 0.0
2015-Jan-24 21:28N 22°28' E 113°53'0 0.0
2015-Jan-24 20:10N 22°28' E 113°53'0 0.0
2015-Jan-24 19:22N 22°28' E 113°53'0 0.0
2015-Jan-24 18:28N 22°28' E 113°53'0 0.0
2015-Jan-24 17:22N 22°28' E 113°53'0 0.0
2015-Jan-24 16:04N 22°28' E 113°53'0 0.0
2015-Jan-24 15:22N 22°28' E 113°53'0 0.0
2015-Jan-24 14:16N 22°28' E 113°53'0 0.0
2015-Jan-24 13:22N 22°28' E 113°53'0 0.1
2015-Jan-24 12:33N 22°28' E 113°53'5 5.2
2015-Jan-24 11:33N 22°23' E 113°54'10 9.8
2015-Jan-24 10:29N 22°20' E 114°05'12 9.6
2015-Jan-24 09:13N 22°10' E 114°13'4 5.9
2015-Jan-24 08:29N 22°06' E 114°13'15 7.6
2015-Jan-24 06:33N 22°19' E 114°06'2 2.0
2015-Jan-24 05:33N 22°20' E 114°07'0 0.0
2015-Jan-24 04:27N 22°20' E 114°07'0 0.0
2015-Jan-24 03:27N 22°20' E 114°07'0 0.0
2015-Jan-24 02:33N 22°20' E 114°07'0 0.0
2015-Jan-24 01:33N 22°20' E 114°07'0 0.0
2015-Jan-24 00:30N 22°20' E 114°07'0 0.0
2015-Jan-23 23:30N 22°20' E 114°07'0 0.0
2015-Jan-23 22:30N 22°20' E 114°07'0 0.0
2015-Jan-23 21:06N 22°20' E 114°07'0 0.0
2015-Jan-23 20:30N 22°20' E 114°07'0 0.0
2015-Jan-23 19:21N 22°20' E 114°07'0 0.0
2015-Jan-23 18:30N 22°20' E 114°07'0 0.0
2015-Jan-23 17:30N 22°20' E 114°07'0 0.0
2015-Jan-23 16:30N 22°20' E 114°07'0 0.0
2015-Jan-23 15:30N 22°20' E 114°07'0 0.0
2015-Jan-23 14:33N 22°20' E 114°07'0 0.0
2015-Jan-23 13:33N 22°20' E 114°07'0 0.0
2015-Jan-23 12:30N 22°20' E 114°07'2 1.8
2015-Jan-23 11:33N 22°19' E 114°06'7 6.3
2015-Jan-23 10:23N 22°13' E 114°10'6 3.2
2015-Jan-23 08:27N 22°08' E 114°15'5 5.5
2015-Jan-23 07:33N 22°09' E 114°20'6 5.7
2015-Jan-23 06:33N 22°08' E 114°26'7 5.7
2015-Jan-23 05:22N 22°09' E 114°34'12712.7
2015-Jan-22 19:21N 22°41' E 116°46'1414.6
2015-Jan-22 18:26N 22°50' E 116°57'1514.2
2015-Jan-22 17:22N 22°60' E 117°10'6712.8
2015-Jan-22 12:10N 23°41' E 118°07'912.9
2015-Jan-22 11:29N 23°46' E 118°15'1212.9
2015-Jan-22 10:32N 23°53' E 118°26'5813.6
2015-Jan-22 06:19N 24°27' E 119°17'2913.3
2015-Jan-22 04:06N 24°46' E 119°42'33212.3
2015-Jan-21 01:13N 29°29' E 122°56'2311.4
2015-Jan-20 23:10N 29°52' E 123°01'3111.9
2015-Jan-20 20:32N 30°21' E 122°48'1613.5
2015-Jan-20 19:20N 30°28' E 122°31'1113.5
2015-Jan-20 18:32N 30°32' E 122°20'1313.4
2015-Jan-20 17:33N 30°36' E 122°05'2 1.8
2015-Jan-20 16:20N 30°37' E 122°03'0 0.0
2015-Jan-20 15:29N 30°38' E 122°03'0 0.0
2015-Jan-20 14:32N 30°38' E 122°03'0 0.0
2015-Jan-20 13:32N 30°38' E 122°03'0 0.0
2015-Jan-20 12:32N 30°38' E 122°03'0 0.0
2015-Jan-20 11:32N 30°38' E 122°03'0 0.0
2015-Jan-20 10:32N 30°38' E 122°03'0 0.0
2015-Jan-20 09:32N 30°38' E 122°03'0 0.0
2015-Jan-20 08:32N 30°38' E 122°03'0 0.0
2015-Jan-20 07:32N 30°38' E 122°03'0 0.0
2015-Jan-20 06:32N 30°38' E 122°03'2 2.1
2015-Jan-20 05:33N 30°36' E 122°05'1010.1
2015-Jan-20 04:33N 30°33' E 122°17'10 9.7
2015-Jan-20 03:33N 30°32' E 122°28'2321.3
2015-Jan-20 02:30N 30°35' E 122°54'  

Dump ship's entire track history